sensor_id;sensor_type;location;lat;lon;timestamp;temperature;humidity
39919;DHT22;25589;51.552;13.424;2023-05-08T00:00:58;9.10;99.90
39919;DHT22;25589;51.552;13.424;2023-05-08T00:03:23;8.70;99.90
39919;DHT22;25589;51.552;13.424;2023-05-08T00:05:49;9.10;99.90
39919;DHT22;25589;51.552;13.424;2023-05-08T00:08:15;9.10;99.90
39919;DHT22;25589;51.552;13.424;2023-05-08T00:10:40;8.00;99.90
39919;DHT22;25589;51.552;13.424;2023-05-08T00:13:06;9.30;99.90
39919;DHT22;25589;51.552;13.424;2023-05-08T00:15:31;8.90;99.90
39919;DHT22;25589;51.552;13.424;2023-05-08T00:17:57;8.80;99.90
39919;DHT22;25589;51.552;13.424;2023-05-08T00:20:23;8.90;99.90
39919;DHT22;25589;51.552;13.424;2023-05-08T00:22:48;8.50;99.90
39919;DHT22;25589;51.552;13.424;2023-05-08T00:25:14;8.90;99.90
39919;DHT22;25589;51.552;13.424;2023-05-08T00:27:39;8.90;99.90
39919;DHT22;25589;51.552;13.424;2023-05-08T00:32:32;9.00;99.90
39919;DHT22;25589;51.552;13.424;2023-05-08T00:34:57;9.00;99.90
39919;DHT22;25589;51.552;13.424;2023-05-08T00:37:23;9.10;99.90
39919;DHT22;25589;51.552;13.424;2023-05-08T00:39:49;8.70;99.90
39919;DHT22;25589;51.552;13.424;2023-05-08T00:42:15;8.70;99.90
39919;DHT22;25589;51.552;13.424;2023-05-08T00:44:40;8.60;99.90
39919;DHT22;25589;51.552;13.424;2023-05-08T00:47:09;8.50;99.90
39919;DHT22;25589;51.552;13.424;2023-05-08T00:49:35;9.40;99.90
39919;DHT22;25589;51.552;13.424;2023-05-08T00:52:02;9.40;99.90
39919;DHT22;25589;51.552;13.424;2023-05-08T00:54:29;8.60;99.90
39919;DHT22;25589;51.552;13.424;2023-05-08T00:56:56;8.60;99.90
39919;DHT22;25589;51.552;13.424;2023-05-08T00:59:23;9.30;99.90
39919;DHT22;25589;51.552;13.424;2023-05-08T01:01:49;8.60;99.90
39919;DHT22;25589;51.552;13.424;2023-05-08T01:06:44;8.60;99.90
39919;DHT22;25589;51.552;13.424;2023-05-08T01:09:10;8.90;99.90
39919;DHT22;25589;51.552;13.424;2023-05-08T01:14:28;9.40;99.90
39919;DHT22;25589;51.552;13.424;2023-05-08T01:32:56;8.50;99.90
39919;DHT22;25589;51.552;13.424;2023-05-08T01:35:33;8.20;99.90
39919;DHT22;25589;51.552;13.424;2023-05-08T01:38:31;8.30;99.90
39919;DHT22;25589;51.552;13.424;2023-05-08T01:41:26;8.30;99.90
39919;DHT22;25589;51.552;13.424;2023-05-08T01:46:32;8.30;99.90
39919;DHT22;25589;51.552;13.424;2023-05-08T01:49:04;8.90;99.90
39919;DHT22;25589;51.552;13.424;2023-05-08T01:51:45;8.00;99.90
39919;DHT22;25589;51.552;13.424;2023-05-08T01:54:15;8.30;99.90
39919;DHT22;25589;51.552;13.424;2023-05-08T01:56:43;7.50;99.90
39919;DHT22;25589;51.552;13.424;2023-05-08T01:59:14;8.30;99.90
39919;DHT22;25589;51.552;13.424;2023-05-08T02:01:43;8.40;99.90
39919;DHT22;25589;51.552;13.424;2023-05-08T02:04:11;8.30;99.90
39919;DHT22;25589;51.552;13.424;2023-05-08T02:09:07;7.70;99.90
39919;DHT22;25589;51.552;13.424;2023-05-08T02:11:35;8.20;99.90
39919;DHT22;25589;51.552;13.424;2023-05-08T02:14:01;8.20;99.90
39919;DHT22;25589;51.552;13.424;2023-05-08T02:16:28;8.70;99.90
39919;DHT22;25589;51.552;13.424;2023-05-08T02:18:57;8.10;99.90
39919;DHT22;25589;51.552;13.424;2023-05-08T02:21:24;8.90;99.90
39919;DHT22;25589;51.552;13.424;2023-05-08T02:23:51;8.10;99.90
39919;DHT22;25589;51.552;13.424;2023-05-08T02:26:19;8.10;99.90
39919;DHT22;25589;51.552;13.424;2023-05-08T02:28:48;8.10;99.90
39919;DHT22;25589;51.552;13.424;2023-05-08T02:31:15;8.50;99.90
39919;DHT22;25589;51.552;13.424;2023-05-08T02:33:42;8.50;99.90
39919;DHT22;25589;51.552;13.424;2023-05-08T02:36:12;7.80;99.90
39919;DHT22;25589;51.552;13.424;2023-05-08T02:38:42;8.60;99.90
39919;DHT22;25589;51.552;13.424;2023-05-08T02:41:09;7.90;99.90
39919;DHT22;25589;51.552;13.424;2023-05-08T02:43:36;8.20;99.90
39919;DHT22;25589;51.552;13.424;2023-05-08T02:46:11;8.00;99.90
39919;DHT22;25589;51.552;13.424;2023-05-08T02:51:46;8.00;99.90
39919;DHT22;25589;51.552;13.424;2023-05-08T02:54:17;7.90;99.90
39919;DHT22;25589;51.552;13.424;2023-05-08T02:59:22;8.40;99.90
39919;DHT22;25589;51.552;13.424;2023-05-08T03:04:34;6.90;99.90
39919;DHT22;25589;51.552;13.424;2023-05-08T03:07:02;8.00;99.90
39919;DHT22;25589;51.552;13.424;2023-05-08T03:09:37;7.90;99.90
39919;DHT22;25589;51.552;13.424;2023-05-08T03:12:08;7.30;99.90
39919;DHT22;25589;51.552;13.424;2023-05-08T03:14:40;7.00;99.90
39919;DHT22;25589;51.552;13.424;2023-05-08T03:17:09;7.80;99.90
39919;DHT22;25589;51.552;13.424;2023-05-08T03:19:38;7.70;99.90
39919;DHT22;25589;51.552;13.424;2023-05-08T03:22:06;7.80;99.90
39919;DHT22;25589;51.552;13.424;2023-05-08T03:24:35;8.10;99.90
39919;DHT22;25589;51.552;13.424;2023-05-08T03:27:02;8.70;99.90
39919;DHT22;25589;51.552;13.424;2023-05-08T03:29:29;7.60;99.90
39919;DHT22;25589;51.552;13.424;2023-05-08T03:31:57;7.60;99.90
39919;DHT22;25589;51.552;13.424;2023-05-08T03:34:25;7.70;99.90
39919;DHT22;25589;51.552;13.424;2023-05-08T03:36:51;8.20;99.90
39919;DHT22;25589;51.552;13.424;2023-05-08T03:39:17;9.20;99.90
39919;DHT22;25589;51.552;13.424;2023-05-08T03:41:43;7.80;99.90
39919;DHT22;25589;51.552;13.424;2023-05-08T03:44:10;8.00;99.90
39919;DHT22;25589;51.552;13.424;2023-05-08T03:46:37;7.70;99.90
39919;DHT22;25589;51.552;13.424;2023-05-08T03:49:03;7.40;99.90
39919;DHT22;25589;51.552;13.424;2023-05-08T03:51:30;7.70;99.90
39919;DHT22;25589;51.552;13.424;2023-05-08T03:53:57;7.60;99.90
39919;DHT22;25589;51.552;13.424;2023-05-08T03:56:23;7.70;99.90
39919;DHT22;25589;51.552;13.424;2023-05-08T03:59:03;7.70;99.90
39919;DHT22;25589;51.552;13.424;2023-05-08T04:01:38;7.70;99.90
39919;DHT22;25589;51.552;13.424;2023-05-08T04:04:22;7.70;99.90
39919;DHT22;25589;51.552;13.424;2023-05-08T04:07:02;7.80;99.90
39919;DHT22;25589;51.552;13.424;2023-05-08T04:10:02;7.60;99.90
39919;DHT22;25589;51.552;13.424;2023-05-08T04:12:58;7.70;99.90
39919;DHT22;25589;51.552;13.424;2023-05-08T04:15:29;7.50;99.90
39919;DHT22;25589;51.552;13.424;2023-05-08T04:18:09;7.40;99.90
39919;DHT22;25589;51.552;13.424;2023-05-08T04:20:39;7.70;99.90
39919;DHT22;25589;51.552;13.424;2023-05-08T04:23:06;7.70;99.90
39919;DHT22;25589;51.552;13.424;2023-05-08T04:25:35;7.70;99.90
39919;DHT22;25589;51.552;13.424;2023-05-08T04:28:01;8.10;99.90
39919;DHT22;25589;51.552;13.424;2023-05-08T04:30:27;7.80;99.90
39919;DHT22;25589;51.552;13.424;2023-05-08T04:32:55;7.90;99.90
39919;DHT22;25589;51.552;13.424;2023-05-08T04:35:21;7.30;99.90
39919;DHT22;25589;51.552;13.424;2023-05-08T04:37:47;7.90;99.90
39919;DHT22;25589;51.552;13.424;2023-05-08T04:40:14;8.00;99.90
39919;DHT22;25589;51.552;13.424;2023-05-08T04:42:41;8.00;99.90
39919;DHT22;25589;51.552;13.424;2023-05-08T04:45:08;8.00;99.90
39919;DHT22;25589;51.552;13.424;2023-05-08T04:47:34;8.10;99.90
39919;DHT22;25589;51.552;13.424;2023-05-08T04:50:00;8.00;99.90
39919;DHT22;25589;51.552;13.424;2023-05-08T04:52:27;8.20;99.90
39919;DHT22;25589;51.552;13.424;2023-05-08T04:54:53;8.60;99.90
39919;DHT22;25589;51.552;13.424;2023-05-08T04:57:18;8.10;99.90
39919;DHT22;25589;51.552;13.424;2023-05-08T04:59:44;8.80;99.90
39919;DHT22;25589;51.552;13.424;2023-05-08T05:02:10;8.30;99.90
39919;DHT22;25589;51.552;13.424;2023-05-08T05:04:36;7.50;99.90
39919;DHT22;25589;51.552;13.424;2023-05-08T05:07:03;7.20;99.90
39919;DHT22;25589;51.552;13.424;2023-05-08T05:09:29;8.40;99.90
39919;DHT22;25589;51.552;13.424;2023-05-08T05:11:55;8.60;99.90
39919;DHT22;25589;51.552;13.424;2023-05-08T05:14:21;8.50;99.90
39919;DHT22;25589;51.552;13.424;2023-05-08T05:16:46;8.60;99.90
39919;DHT22;25589;51.552;13.424;2023-05-08T05:19:12;8.40;99.90
39919;DHT22;25589;51.552;13.424;2023-05-08T05:21:38;8.30;99.90
39919;DHT22;25589;51.552;13.424;2023-05-08T05:24:05;8.00;99.90
39919;DHT22;25589;51.552;13.424;2023-05-08T05:26:31;8.80;99.90
39919;DHT22;25589;51.552;13.424;2023-05-08T05:28:57;9.70;99.90
39919;DHT22;25589;51.552;13.424;2023-05-08T05:31:22;9.30;99.90
39919;DHT22;25589;51.552;13.424;2023-05-08T05:33:48;9.10;99.90
39919;DHT22;25589;51.552;13.424;2023-05-08T05:36:14;9.80;99.90
39919;DHT22;25589;51.552;13.424;2023-05-08T05:38:40;9.80;99.90
39919;DHT22;25589;51.552;13.424;2023-05-08T05:41:05;9.20;99.90
39919;DHT22;25589;51.552;13.424;2023-05-08T05:43:31;9.20;99.90
39919;DHT22;25589;51.552;13.424;2023-05-08T05:46:06;9.20;99.90
39919;DHT22;25589;51.552;13.424;2023-05-08T05:48:32;9.30;99.90
39919;DHT22;25589;51.552;13.424;2023-05-08T05:50:58;9.30;99.90
39919;DHT22;25589;51.552;13.424;2023-05-08T05:53:24;10.00;99.90
39919;DHT22;25589;51.552;13.424;2023-05-08T05:55:50;10.00;99.90
39919;DHT22;25589;51.552;13.424;2023-05-08T05:58:17;10.10;99.90
39919;DHT22;25589;51.552;13.424;2023-05-08T06:00:43;10.10;99.90
39919;DHT22;25589;51.552;13.424;2023-05-08T06:03:08;9.90;99.90
39919;DHT22;25589;51.552;13.424;2023-05-08T06:05:36;9.60;99.90
39919;DHT22;25589;51.552;13.424;2023-05-08T06:08:02;10.40;99.90
39919;DHT22;25589;51.552;13.424;2023-05-08T06:10:28;10.60;99.90
39919;DHT22;25589;51.552;13.424;2023-05-08T06:12:53;10.00;99.90
39919;DHT22;25589;51.552;13.424;2023-05-08T06:15:20;11.00;99.90
39919;DHT22;25589;51.552;13.424;2023-05-08T06:17:46;10.30;99.90
39919;DHT22;25589;51.552;13.424;2023-05-08T06:20:12;10.10;99.90
39919;DHT22;25589;51.552;13.424;2023-05-08T06:22:38;10.20;99.90
39919;DHT22;25589;51.552;13.424;2023-05-08T06:25:05;10.20;99.90
39919;DHT22;25589;51.552;13.424;2023-05-08T06:27:34;9.40;99.90
39919;DHT22;25589;51.552;13.424;2023-05-08T06:30:00;10.40;99.90
39919;DHT22;25589;51.552;13.424;2023-05-08T06:32:26;10.40;99.90
39919;DHT22;25589;51.552;13.424;2023-05-08T06:34:51;11.30;99.90
39919;DHT22;25589;51.552;13.424;2023-05-08T06:37:17;11.10;99.90
39919;DHT22;25589;51.552;13.424;2023-05-08T06:39:42;11.70;99.90
39919;DHT22;25589;51.552;13.424;2023-05-08T06:42:08;10.70;99.90
39919;DHT22;25589;51.552;13.424;2023-05-08T06:44:37;10.80;99.90
39919;DHT22;25589;51.552;13.424;2023-05-08T06:47:02;10.80;99.90
39919;DHT22;25589;51.552;13.424;2023-05-08T06:49:28;10.90;99.90
39919;DHT22;25589;51.552;13.424;2023-05-08T06:51:53;11.20;99.90
39919;DHT22;25589;51.552;13.424;2023-05-08T06:54:19;11.20;99.90
39919;DHT22;25589;51.552;13.424;2023-05-08T06:56:45;11.10;99.90
39919;DHT22;25589;51.552;13.424;2023-05-08T06:59:10;11.40;99.90
39919;DHT22;25589;51.552;13.424;2023-05-08T07:01:36;11.10;99.90
39919;DHT22;25589;51.552;13.424;2023-05-08T07:04:02;11.10;99.90
39919;DHT22;25589;51.552;13.424;2023-05-08T07:06:29;11.60;99.90
39919;DHT22;25589;51.552;13.424;2023-05-08T07:08:55;11.40;99.90
39919;DHT22;25589;51.552;13.424;2023-05-08T07:11:21;11.30;99.90
39919;DHT22;25589;51.552;13.424;2023-05-08T07:13:47;11.40;99.90
39919;DHT22;25589;51.552;13.424;2023-05-08T07:16:13;10.80;99.90
39919;DHT22;25589;51.552;13.424;2023-05-08T07:18:39;11.50;99.90
39919;DHT22;25589;51.552;13.424;2023-05-08T07:21:05;11.80;99.90
39919;DHT22;25589;51.552;13.424;2023-05-08T07:23:30;11.30;99.90
39919;DHT22;25589;51.552;13.424;2023-05-08T07:25:56;11.50;99.90
39919;DHT22;25589;51.552;13.424;2023-05-08T07:28:22;11.90;99.90
39919;DHT22;25589;51.552;13.424;2023-05-08T07:30:48;12.00;99.90
39919;DHT22;25589;51.552;13.424;2023-05-08T07:33:13;12.00;99.90
39919;DHT22;25589;51.552;13.424;2023-05-08T07:35:39;11.80;99.90
39919;DHT22;25589;51.552;13.424;2023-05-08T07:38:05;12.30;99.90
39919;DHT22;25589;51.552;13.424;2023-05-08T07:40:31;12.50;99.90
39919;DHT22;25589;51.552;13.424;2023-05-08T07:42:56;12.40;99.90
39919;DHT22;25589;51.552;13.424;2023-05-08T07:45:22;12.50;99.90
39919;DHT22;25589;51.552;13.424;2023-05-08T07:50:14;12.60;99.90
39919;DHT22;25589;51.552;13.424;2023-05-08T07:52:40;12.70;99.90
39919;DHT22;25589;51.552;13.424;2023-05-08T07:55:06;12.70;99.90
39919;DHT22;25589;51.552;13.424;2023-05-08T07:57:38;12.80;99.90
39919;DHT22;25589;51.552;13.424;2023-05-08T08:00:05;12.80;99.90
39919;DHT22;25589;51.552;13.424;2023-05-08T08:02:39;13.40;99.90
39919;DHT22;25589;51.552;13.424;2023-05-08T08:05:05;13.00;99.90
39919;DHT22;25589;51.552;13.424;2023-05-08T08:07:31;13.20;99.90
39919;DHT22;25589;51.552;13.424;2023-05-08T08:09:58;13.20;99.90
39919;DHT22;25589;51.552;13.424;2023-05-08T08:12:23;13.30;99.90
39919;DHT22;25589;51.552;13.424;2023-05-08T08:14:49;13.70;99.90
39919;DHT22;25589;51.552;13.424;2023-05-08T08:17:16;13.30;99.90
39919;DHT22;25589;51.552;13.424;2023-05-08T08:19:41;13.60;99.90
39919;DHT22;25589;51.552;13.424;2023-05-08T08:22:07;13.70;99.90
39919;DHT22;25589;51.552;13.424;2023-05-08T08:24:32;13.90;99.90
39919;DHT22;25589;51.552;13.424;2023-05-08T08:26:58;13.90;99.90
39919;DHT22;25589;51.552;13.424;2023-05-08T08:29:24;14.40;99.90
39919;DHT22;25589;51.552;13.424;2023-05-08T08:31:50;14.00;99.90
39919;DHT22;25589;51.552;13.424;2023-05-08T08:34:15;14.10;99.90
39919;DHT22;25589;51.552;13.424;2023-05-08T08:36:41;14.20;99.90
39919;DHT22;25589;51.552;13.424;2023-05-08T08:39:06;14.50;99.90
39919;DHT22;25589;51.552;13.424;2023-05-08T08:41:32;14.20;99.90
39919;DHT22;25589;51.552;13.424;2023-05-08T08:43:58;14.50;99.90
39919;DHT22;25589;51.552;13.424;2023-05-08T08:46:25;15.10;99.90
39919;DHT22;25589;51.552;13.424;2023-05-08T08:48:53;14.90;99.90
39919;DHT22;25589;51.552;13.424;2023-05-08T08:51:27;14.80;99.90
39919;DHT22;25589;51.552;13.424;2023-05-08T08:54:08;15.00;99.80
39919;DHT22;25589;51.552;13.424;2023-05-08T08:56:36;15.30;99.30
39919;DHT22;25589;51.552;13.424;2023-05-08T08:59:04;15.40;99.20
39919;DHT22;25589;51.552;13.424;2023-05-08T09:01:33;15.60;99.10
39919;DHT22;25589;51.552;13.424;2023-05-08T09:04:00;15.60;98.00
39919;DHT22;25589;51.552;13.424;2023-05-08T09:06:26;15.70;97.10
39919;DHT22;25589;51.552;13.424;2023-05-08T09:08:56;15.20;96.00
39919;DHT22;25589;51.552;13.424;2023-05-08T09:11:23;15.90;96.00
39919;DHT22;25589;51.552;13.424;2023-05-08T09:13:49;16.00;95.80
39919;DHT22;25589;51.552;13.424;2023-05-08T09:16:15;16.00;94.40
39919;DHT22;25589;51.552;13.424;2023-05-08T09:18:40;16.30;94.60
39919;DHT22;25589;51.552;13.424;2023-05-08T09:21:06;16.20;93.60
39919;DHT22;25589;51.552;13.424;2023-05-08T09:23:34;16.40;93.00
39919;DHT22;25589;51.552;13.424;2023-05-08T09:26:00;16.30;93.40
39919;DHT22;25589;51.552;13.424;2023-05-08T09:28:26;16.80;92.00
39919;DHT22;25589;51.552;13.424;2023-05-08T09:30:57;16.70;91.60
39919;DHT22;25589;51.552;13.424;2023-05-08T09:33:27;16.80;91.20
39919;DHT22;25589;51.552;13.424;2023-05-08T09:35:54;16.90;90.40
39919;DHT22;25589;51.552;13.424;2023-05-08T09:38:35;17.00;90.60
39919;DHT22;25589;51.552;13.424;2023-05-08T09:43:30;17.50;90.00
39919;DHT22;25589;51.552;13.424;2023-05-08T09:45:56;18.00;89.40
39919;DHT22;25589;51.552;13.424;2023-05-08T09:48:36;18.00;83.50
39919;DHT22;25589;51.552;13.424;2023-05-08T09:51:05;18.10;81.30
39919;DHT22;25589;51.552;13.424;2023-05-08T09:53:31;18.10;80.50
39919;DHT22;25589;51.552;13.424;2023-05-08T09:55:57;18.10;79.70
39919;DHT22;25589;51.552;13.424;2023-05-08T09:58:22;18.20;74.90
39919;DHT22;25589;51.552;13.424;2023-05-08T10:00:49;18.30;74.90
39919;DHT22;25589;51.552;13.424;2023-05-08T10:03:15;18.40;73.20
39919;DHT22;25589;51.552;13.424;2023-05-08T10:05:41;18.60;72.40
39919;DHT22;25589;51.552;13.424;2023-05-08T10:08:22;18.50;71.10
39919;DHT22;25589;51.552;13.424;2023-05-08T10:10:48;18.70;70.60
39919;DHT22;25589;51.552;13.424;2023-05-08T10:13:14;18.70;70.60
39919;DHT22;25589;51.552;13.424;2023-05-08T10:15:44;18.80;70.50
39919;DHT22;25589;51.552;13.424;2023-05-08T10:18:10;18.80;69.50
39919;DHT22;25589;51.552;13.424;2023-05-08T10:20:44;18.80;68.20
39919;DHT22;25589;51.552;13.424;2023-05-08T10:23:14;18.80;67.00
39919;DHT22;25589;51.552;13.424;2023-05-08T10:25:44;18.90;67.60
39919;DHT22;25589;51.552;13.424;2023-05-08T10:28:36;19.10;65.80
39919;DHT22;25589;51.552;13.424;2023-05-08T10:31:06;19.10;64.80
39919;DHT22;25589;51.552;13.424;2023-05-08T10:33:34;19.10;65.20
39919;DHT22;25589;51.552;13.424;2023-05-08T10:36:00;19.50;64.40
39919;DHT22;25589;51.552;13.424;2023-05-08T10:38:27;19.70;63.90
39919;DHT22;25589;51.552;13.424;2023-05-08T10:40:55;19.80;63.20
39919;DHT22;25589;51.552;13.424;2023-05-08T10:43:24;19.90;61.90
39919;DHT22;25589;51.552;13.424;2023-05-08T10:45:51;19.90;62.80
39919;DHT22;25589;51.552;13.424;2023-05-08T10:48:32;20.10;62.00
39919;DHT22;25589;51.552;13.424;2023-05-08T10:51:08;20.20;62.40
39919;DHT22;25589;51.552;13.424;2023-05-08T10:56:00;20.70;59.40
39919;DHT22;25589;51.552;13.424;2023-05-08T10:58:34;20.70;58.80
39919;DHT22;25589;51.552;13.424;2023-05-08T11:03:31;20.80;59.50
39919;DHT22;25589;51.552;13.424;2023-05-08T11:05:57;20.80;59.80
39919;DHT22;25589;51.552;13.424;2023-05-08T11:08:28;21.00;58.70
39919;DHT22;25589;51.552;13.424;2023-05-08T11:16:16;21.30;56.30
39919;DHT22;25589;51.552;13.424;2023-05-08T11:19:15;21.30;55.30
39919;DHT22;25589;51.552;13.424;2023-05-08T11:24:36;21.60;54.30
39919;DHT22;25589;51.552;13.424;2023-05-08T11:27:02;21.40;53.30
39919;DHT22;25589;51.552;13.424;2023-05-08T11:29:28;21.60;53.00
39919;DHT22;25589;51.552;13.424;2023-05-08T11:31:54;21.60;53.50
39919;DHT22;25589;51.552;13.424;2023-05-08T11:37:24;22.00;51.50
39919;DHT22;25589;51.552;13.424;2023-05-08T11:39:50;22.10;51.10
39919;DHT22;25589;51.552;13.424;2023-05-08T11:45:09;22.60;49.90
39919;DHT22;25589;51.552;13.424;2023-05-08T11:47:38;22.70;49.70
39919;DHT22;25589;51.552;13.424;2023-05-08T11:50:04;22.60;50.50
39919;DHT22;25589;51.552;13.424;2023-05-08T11:52:37;22.70;50.20
39919;DHT22;25589;51.552;13.424;2023-05-08T11:55:05;22.70;49.40
39919;DHT22;25589;51.552;13.424;2023-05-08T11:57:31;22.70;49.00
39919;DHT22;25589;51.552;13.424;2023-05-08T12:00:00;22.90;48.20
39919;DHT22;25589;51.552;13.424;2023-05-08T12:02:38;22.90;47.00
39919;DHT22;25589;51.552;13.424;2023-05-08T12:05:08;23.10;47.40
39919;DHT22;25589;51.552;13.424;2023-05-08T12:07:46;23.30;47.30
39919;DHT22;25589;51.552;13.424;2023-05-08T12:10:13;23.30;47.50
39919;DHT22;25589;51.552;13.424;2023-05-08T12:12:40;23.50;47.30
39919;DHT22;25589;51.552;13.424;2023-05-08T12:15:10;23.50;46.70
39919;DHT22;25589;51.552;13.424;2023-05-08T12:17:35;23.60;46.30
39919;DHT22;25589;51.552;13.424;2023-05-08T12:20:17;23.50;46.10
39919;DHT22;25589;51.552;13.424;2023-05-08T12:22:51;23.40;46.10
39919;DHT22;25589;51.552;13.424;2023-05-08T12:25:17;23.70;45.90
39919;DHT22;25589;51.552;13.424;2023-05-08T12:27:43;23.80;46.10
39919;DHT22;25589;51.552;13.424;2023-05-08T12:30:11;24.10;45.00
39919;DHT22;25589;51.552;13.424;2023-05-08T12:32:40;24.40;44.80
39919;DHT22;25589;51.552;13.424;2023-05-08T12:35:07;24.40;43.10
39919;DHT22;25589;51.552;13.424;2023-05-08T12:37:33;24.40;43.60
39919;DHT22;25589;51.552;13.424;2023-05-08T12:39:58;24.50;43.60
39919;DHT22;25589;51.552;13.424;2023-05-08T12:42:52;24.60;42.90
39919;DHT22;25589;51.552;13.424;2023-05-08T12:45:23;24.60;43.10
39919;DHT22;25589;51.552;13.424;2023-05-08T12:47:51;24.50;43.90
39919;DHT22;25589;51.552;13.424;2023-05-08T12:50:19;24.20;42.70
39919;DHT22;25589;51.552;13.424;2023-05-08T12:52:50;24.30;42.40
39919;DHT22;25589;51.552;13.424;2023-05-08T12:57:45;24.70;41.50
39919;DHT22;25589;51.552;13.424;2023-05-08T13:00:14;24.90;40.70
39919;DHT22;25589;51.552;13.424;2023-05-08T13:02:50;24.80;41.40
39919;DHT22;25589;51.552;13.424;2023-05-08T13:05:21;25.10;40.70
39919;DHT22;25589;51.552;13.424;2023-05-08T13:07:47;25.30;41.20
39919;DHT22;25589;51.552;13.424;2023-05-08T13:10:13;25.60;41.10
39919;DHT22;25589;51.552;13.424;2023-05-08T13:12:39;25.50;39.90
39919;DHT22;25589;51.552;13.424;2023-05-08T13:15:05;25.50;40.70
39919;DHT22;25589;51.552;13.424;2023-05-08T13:17:30;25.60;40.30
39919;DHT22;25589;51.552;13.424;2023-05-08T13:19:56;25.50;39.60
39919;DHT22;25589;51.552;13.424;2023-05-08T13:22:22;25.40;40.10
39919;DHT22;25589;51.552;13.424;2023-05-08T13:24:51;25.20;39.40
39919;DHT22;25589;51.552;13.424;2023-05-08T13:27:16;25.10;40.20
39919;DHT22;25589;51.552;13.424;2023-05-08T13:29:42;25.10;40.40
39919;DHT22;25589;51.552;13.424;2023-05-08T13:32:09;25.20;40.10
39919;DHT22;25589;51.552;13.424;2023-05-08T13:34:34;25.30;39.90
39919;DHT22;25589;51.552;13.424;2023-05-08T13:37:00;25.60;38.30
39919;DHT22;25589;51.552;13.424;2023-05-08T13:39:25;25.50;38.80
39919;DHT22;25589;51.552;13.424;2023-05-08T13:41:51;25.50;39.40
39919;DHT22;25589;51.552;13.424;2023-05-08T13:44:16;25.20;39.70
39919;DHT22;25589;51.552;13.424;2023-05-08T13:46:42;25.10;39.70
39919;DHT22;25589;51.552;13.424;2023-05-08T13:49:07;24.90;39.50
39919;DHT22;25589;51.552;13.424;2023-05-08T13:51:33;24.80;39.00
39919;DHT22;25589;51.552;13.424;2023-05-08T13:53:59;24.50;39.20
39919;DHT22;25589;51.552;13.424;2023-05-08T13:56:24;24.40;39.70
39919;DHT22;25589;51.552;13.424;2023-05-08T13:58:51;24.60;40.20
39919;DHT22;25589;51.552;13.424;2023-05-08T14:01:16;25.00;40.20
39919;DHT22;25589;51.552;13.424;2023-05-08T14:03:42;25.20;40.10
39919;DHT22;25589;51.552;13.424;2023-05-08T14:06:08;25.70;40.00
39919;DHT22;25589;51.552;13.424;2023-05-08T14:08:33;26.10;39.20
39919;DHT22;25589;51.552;13.424;2023-05-08T14:10:59;26.10;38.80
39919;DHT22;25589;51.552;13.424;2023-05-08T14:13:24;26.10;38.30
39919;DHT22;25589;51.552;13.424;2023-05-08T14:15:50;26.40;38.60
39919;DHT22;25589;51.552;13.424;2023-05-08T14:18:15;26.50;38.40
39919;DHT22;25589;51.552;13.424;2023-05-08T14:20:41;26.50;38.00
39919;DHT22;25589;51.552;13.424;2023-05-08T14:23:06;26.60;38.20
39919;DHT22;25589;51.552;13.424;2023-05-08T14:25:32;26.90;37.70
39919;DHT22;25589;51.552;13.424;2023-05-08T14:27:57;26.90;37.40
39919;DHT22;25589;51.552;13.424;2023-05-08T14:30:23;27.00;38.10
39919;DHT22;25589;51.552;13.424;2023-05-08T14:32:49;26.90;37.30
39919;DHT22;25589;51.552;13.424;2023-05-08T14:35:14;26.80;37.30
39919;DHT22;25589;51.552;13.424;2023-05-08T14:37:40;26.40;38.30
39919;DHT22;25589;51.552;13.424;2023-05-08T14:40:06;26.00;37.90
39919;DHT22;25589;51.552;13.424;2023-05-08T14:42:32;25.70;38.70
39919;DHT22;25589;51.552;13.424;2023-05-08T14:44:58;25.90;39.00
39919;DHT22;25589;51.552;13.424;2023-05-08T14:47:23;26.00;38.10
39919;DHT22;25589;51.552;13.424;2023-05-08T14:49:51;26.40;38.40
39919;DHT22;25589;51.552;13.424;2023-05-08T14:52:18;26.80;37.80
39919;DHT22;25589;51.552;13.424;2023-05-08T14:54:43;26.70;37.40
39919;DHT22;25589;51.552;13.424;2023-05-08T14:57:11;27.10;36.80
39919;DHT22;25589;51.552;13.424;2023-05-08T14:59:36;27.30;36.60
39919;DHT22;25589;51.552;13.424;2023-05-08T15:02:02;27.60;37.00
39919;DHT22;25589;51.552;13.424;2023-05-08T15:04:27;28.00;36.70
39919;DHT22;25589;51.552;13.424;2023-05-08T15:06:53;28.30;36.20
39919;DHT22;25589;51.552;13.424;2023-05-08T15:09:18;28.40;36.00
39919;DHT22;25589;51.552;13.424;2023-05-08T15:11:44;28.20;35.30
39919;DHT22;25589;51.552;13.424;2023-05-08T15:14:09;28.20;35.40
39919;DHT22;25589;51.552;13.424;2023-05-08T15:16:35;28.20;34.90
39919;DHT22;25589;51.552;13.424;2023-05-08T15:19:01;28.10;35.70
39919;DHT22;25589;51.552;13.424;2023-05-08T15:21:26;28.30;35.20
39919;DHT22;25589;51.552;13.424;2023-05-08T15:23:54;28.90;35.20
39919;DHT22;25589;51.552;13.424;2023-05-08T15:26:20;29.00;34.90
39919;DHT22;25589;51.552;13.424;2023-05-08T15:28:47;28.90;34.40
39919;DHT22;25589;51.552;13.424;2023-05-08T15:31:12;29.40;34.10
39919;DHT22;25589;51.552;13.424;2023-05-08T15:33:38;29.80;33.60
39919;DHT22;25589;51.552;13.424;2023-05-08T15:36:12;30.10;33.60
39919;DHT22;25589;51.552;13.424;2023-05-08T15:38:38;30.30;33.20
39919;DHT22;25589;51.552;13.424;2023-05-08T15:41:04;30.30;32.50
39919;DHT22;25589;51.552;13.424;2023-05-08T15:43:30;30.20;32.30
39919;DHT22;25589;51.552;13.424;2023-05-08T15:45:55;29.90;32.60
39919;DHT22;25589;51.552;13.424;2023-05-08T15:48:21;29.90;32.40
39919;DHT22;25589;51.552;13.424;2023-05-08T15:50:46;29.90;32.30
39919;DHT22;25589;51.552;13.424;2023-05-08T15:53:12;30.10;32.10
39919;DHT22;25589;51.552;13.424;2023-05-08T15:55:37;30.20;32.10
39919;DHT22;25589;51.552;13.424;2023-05-08T15:58:03;29.70;32.30
39919;DHT22;25589;51.552;13.424;2023-05-08T16:00:28;29.30;32.80
39919;DHT22;25589;51.552;13.424;2023-05-08T16:02:55;29.20;33.00
39919;DHT22;25589;51.552;13.424;2023-05-08T16:05:21;29.50;33.00
39919;DHT22;25589;51.552;13.424;2023-05-08T16:07:46;29.60;32.70
39919;DHT22;25589;51.552;13.424;2023-05-08T16:10:14;30.00;32.00
39919;DHT22;25589;51.552;13.424;2023-05-08T16:12:40;30.70;31.60
39919;DHT22;25589;51.552;13.424;2023-05-08T16:15:06;31.10;31.30
39919;DHT22;25589;51.552;13.424;2023-05-08T16:17:32;31.10;31.10
39919;DHT22;25589;51.552;13.424;2023-05-08T16:19:57;30.50;30.70
39919;DHT22;25589;51.552;13.424;2023-05-08T16:22:25;30.00;31.10
39919;DHT22;25589;51.552;13.424;2023-05-08T16:24:52;29.90;31.90
39919;DHT22;25589;51.552;13.424;2023-05-08T16:27:18;30.50;31.20